Time;durP1;ratioP1;P1;durP2;ratioP2;P2;SDS_P1;SDS_P2;PMS_P1;PMS_P2;Temp;Humidity;BMP_temperature;BMP_pressure;BME280_temperature;BME280_humidity;BME280_pressure;Samples;Min_cycle;Max_cycle;Signal;HPM_P1;HPM_P2
2022/05/05 00:00:54;;;;;;;14.40;7.22;;;4.20;99.90;;;;;;5020316;28;20120;-47
2022/05/05 00:03:20;;;;;;;13.57;7.63;;;4.00;99.90;;;;;;5016370;28;20041;-49
2022/05/05 00:05:45;;;;;;;14.80;7.57;;;4.00;99.90;;;;;;5019499;28;20380;-46
2022/05/05 00:08:11;;;;;;;14.73;7.50;;;4.00;99.90;;;;;;5018418;28;20037;-46
2022/05/05 00:16:07;;;;;;;15.02;7.95;;;3.90;99.90;;;;;;5018239;28;20041;-46
2022/05/05 00:18:33;;;;;;;14.45;7.53;;;3.70;99.90;;;;;;5018854;28;20037;-46
2022/05/05 00:20:58;;;;;;;16.38;8.27;;;3.90;99.90;;;;;;5018553;28;20480;-49
2022/05/05 00:23:24;;;;;;;11.57;7.20;;;3.70;99.90;;;;;;5018736;28;20037;-46
2022/05/05 00:25:50;;;;;;;15.63;8.35;;;3.70;99.90;;;;;;5019690;28;20542;-45
2022/05/05 00:28:15;;;;;;;18.73;9.30;;;3.70;99.90;;;;;;5018098;28;20045;-49
2022/05/05 00:30:41;;;;;;;13.90;8.80;;;3.70;99.90;;;;;;5019293;28;20072;-46
2022/05/05 00:33:07;;;;;;;12.30;8.13;;;3.80;99.90;;;;;;5017013;28;20040;-49
2022/05/05 00:35:32;;;;;;;16.50;8.30;;;3.70;99.90;;;;;;5019065;28;20029;-48
2022/05/05 00:37:58;;;;;;;15.48;8.25;;;3.70;99.90;;;;;;5018721;28;20044;-47
2022/05/05 00:40:24;;;;;;;20.05;9.13;;;3.70;99.90;;;;;;5019018;28;20049;-49
2022/05/05 00:42:49;;;;;;;12.93;7.93;;;3.60;99.90;;;;;;5017843;28;20045;-48
2022/05/05 00:45:16;;;;;;;16.85;8.55;;;3.80;99.90;;;;;;5019427;28;20041;-48
2022/05/05 00:47:41;;;;;;;13.30;7.05;;;3.70;99.90;;;;;;5018052;28;20057;-46
2022/05/05 00:50:08;;;;;;;17.30;7.93;;;3.80;99.90;;;;;;5019234;28;20099;-50
2022/05/05 00:52:33;;;;;;;20.40;10.10;;;3.70;99.90;;;;;;5019634;28;20033;-49
2022/05/05 00:55:00;;;;;;;19.42;8.05;;;4.30;99.90;;;;;;5020245;28;20365;-46
2022/05/05 00:57:26;;;;;;;16.90;9.43;;;4.30;99.90;;;;;;5019977;28;20033;-48
2022/05/05 00:59:53;;;;;;;18.15;7.50;;;3.80;99.90;;;;;;5017886;28;20541;-47
2022/05/05 01:02:19;;;;;;;16.23;8.20;;;3.80;99.90;;;;;;5019143;28;20124;-47
2022/05/05 01:04:46;;;;;;;17.90;8.73;;;3.80;99.90;;;;;;5017780;28;20030;-47
2022/05/05 01:07:14;;;;;;;13.48;7.38;;;3.70;99.90;;;;;;5017584;28;20120;-49
2022/05/05 01:09:40;;;;;;;16.17;8.00;;;3.90;99.90;;;;;;5017325;28;20053;-47
2022/05/05 01:12:07;;;;;;;12.43;7.65;;;3.80;99.90;;;;;;5019168;28;20083;-46
2022/05/05 01:14:34;;;;;;;11.35;6.32;;;3.70;99.90;;;;;;5017420;28;20392;-47
2022/05/05 01:17:00;;;;;;;13.48;8.05;;;3.90;99.90;;;;;;5017283;28;20441;-45
2022/05/05 01:19:25;;;;;;;11.07;6.97;;;3.90;99.90;;;;;;5018071;28;20116;-47
2022/05/05 01:21:55;;;;;;;13.40;8.60;;;3.80;99.90;;;;;;5018167;28;20469;-46
2022/05/05 01:29:51;;;;;;;14.93;7.72;;;3.80;99.90;;;;;;5017346;28;20111;-47
2022/05/05 01:32:17;;;;;;;14.75;8.18;;;4.30;99.90;;;;;;5018265;28;20034;-47
2022/05/05 01:34:43;;;;;;;13.48;8.27;;;3.70;99.90;;;;;;5017553;28;20041;-45
2022/05/05 01:37:09;;;;;;;19.35;9.07;;;4.10;99.90;;;;;;5019115;28;20034;-50
2022/05/05 01:39:34;;;;;;;19.13;8.88;;;3.90;99.90;;;;;;5018368;28;20111;-49
2022/05/05 01:42:00;;;;;;;13.95;8.65;;;3.90;99.90;;;;;;5015858;28;20079;-48
2022/05/05 01:44:25;;;;;;;11.95;7.65;;;3.80;99.90;;;;;;5018139;28;20041;-47
2022/05/05 01:46:53;;;;;;;16.30;8.55;;;3.70;99.90;;;;;;5017685;28;20036;-48
2022/05/05 01:49:18;;;;;;;16.48;8.63;;;3.80;99.90;;;;;;5017426;28;20052;-49
2022/05/05 01:51:45;;;;;;;14.32;9.07;;;3.90;99.90;;;;;;5016800;28;20494;-52
2022/05/05 01:54:10;;;;;;;14.38;8.13;;;4.00;99.90;;;;;;5020847;28;20029;-47
2022/05/05 01:56:36;;;;;;;22.52;9.48;;;4.00;99.90;;;;;;5020405;28;20390;-46
2022/05/05 01:59:02;;;;;;;16.48;8.55;;;4.10;99.90;;;;;;5019506;28;20038;-45
2022/05/05 02:01:27;;;;;;;13.00;8.07;;;4.10;99.90;;;;;;5020416;28;20041;-47
2022/05/05 02:03:53;;;;;;;14.30;9.48;;;4.10;99.90;;;;;;5019846;28;20113;-49
2022/05/05 02:06:19;;;;;;;15.43;9.68;;;4.10;99.90;;;;;;5021429;28;20037;-45
2022/05/05 02:08:44;;;;;;;18.08;9.18;;;4.10;99.90;;;;;;5020737;28;20510;-46
2022/05/05 02:11:10;;;;;;;20.50;8.40;;;4.00;99.90;;;;;;5020075;28;20038;-47
2022/05/05 02:13:36;;;;;;;15.77;7.97;;;4.30;99.90;;;;;;5020942;28;20061;-46
2022/05/05 02:16:01;;;;;;;14.35;8.25;;;3.70;99.90;;;;;;5020153;28;20038;-49
2022/05/05 02:18:27;;;;;;;16.70;9.35;;;4.00;99.90;;;;;;5021431;28;20491;-47
2022/05/05 02:20:53;;;;;;;14.52;8.68;;;3.90;99.90;;;;;;5020804;28;20120;-49
2022/05/05 02:23:19;;;;;;;13.32;8.40;;;3.90;99.90;;;;;;5021877;28;20508;-47
2022/05/05 02:25:44;;;;;;;15.63;9.48;;;3.70;99.90;;;;;;5016909;28;20038;-47
2022/05/05 02:28:10;;;;;;;15.30;8.80;;;3.60;99.90;;;;;;5020560;28;20064;-49
2022/05/05 02:30:36;;;;;;;16.27;9.73;;;3.70;99.90;;;;;;5022115;28;20050;-48
2022/05/05 02:33:02;;;;;;;17.85;9.52;;;3.70;99.90;;;;;;5022000;28;20384;-47
2022/05/05 02:35:28;;;;;;;14.55;9.77;;;3.50;99.90;;;;;;5020885;28;20049;-50
2022/05/05 02:40:38;;;;;;;16.10;11.00;;;3.80;99.90;;;;;;5021312;28;20164;-49
2022/05/05 02:43:04;;;;;;;15.88;10.63;;;3.50;99.90;;;;;;5020028;28;20970;-51
2022/05/05 02:45:30;;;;;;;19.48;10.52;;;3.30;99.90;;;;;;5021252;28;20129;-49
2022/05/05 02:47:56;;;;;;;17.58;10.30;;;3.40;99.90;;;;;;5019690;28;20690;-48
2022/05/05 02:50:22;;;;;;;18.65;10.75;;;3.30;99.90;;;;;;5018085;28;20037;-47
2022/05/05 02:52:48;;;;;;;19.92;11.23;;;3.30;99.90;;;;;;5021031;28;20072;-46
2022/05/05 02:55:14;;;;;;;23.98;11.43;;;3.20;99.90;;;;;;5020314;28;20126;-49
2022/05/05 02:57:39;;;;;;;20.17;11.32;;;3.10;99.90;;;;;;5020973;28;20029;-48
2022/05/05 03:00:07;;;;;;;20.55;11.85;;;3.20;99.90;;;;;;5020904;28;20048;-48
2022/05/05 03:02:33;;;;;;;20.67;11.40;;;3.00;99.90;;;;;;5021902;28;20033;-47
2022/05/05 03:04:59;;;;;;;18.30;11.18;;;3.10;99.90;;;;;;5020135;28;20060;-48
2022/05/05 03:07:25;;;;;;;19.77;10.75;;;3.10;99.90;;;;;;5018690;28;20515;-47
2022/05/05 03:09:51;;;;;;;17.77;11.13;;;3.00;99.90;;;;;;5016545;28;20049;-49
2022/05/05 03:12:16;;;;;;;17.08;11.30;;;3.00;99.90;;;;;;5018097;28;20036;-50
2022/05/05 03:14:43;;;;;;;18.63;11.18;;;3.10;99.90;;;;;;5018919;28;20048;-46
2022/05/05 03:17:08;;;;;;;18.38;12.25;;;2.90;99.90;;;;;;5020394;28;20045;-45
2022/05/05 03:19:34;;;;;;;17.77;10.35;;;2.80;99.90;;;;;;5003726;28;20033;-49
2022/05/05 03:22:00;;;;;;;20.00;10.85;;;2.90;99.90;;;;;;5020377;28;20086;-48
2022/05/05 03:24:26;;;;;;;20.63;11.55;;;2.80;99.90;;;;;;5021069;28;20121;-48
2022/05/05 03:26:51;;;;;;;17.48;10.30;;;2.90;99.90;;;;;;5019905;28;20041;-46
2022/05/05 03:29:17;;;;;;;22.92;12.50;;;2.90;99.90;;;;;;5020832;28;20392;-46
2022/05/05 03:31:43;;;;;;;18.60;12.18;;;3.00;99.90;;;;;;5019762;28;20459;-47
2022/05/05 03:34:09;;;;;;;23.48;12.50;;;2.90;99.90;;;;;;5020548;28;20583;-47
2022/05/05 03:36:35;;;;;;;20.52;11.35;;;2.80;99.90;;;;;;5019477;28;20041;-47
2022/05/05 03:39:01;;;;;;;23.70;12.93;;;3.80;99.90;;;;;;5017269;28;20062;-46
2022/05/05 03:41:27;;;;;;;20.75;12.63;;;3.00;99.90;;;;;;5020042;28;20544;-48
2022/05/05 03:43:52;;;;;;;19.30;12.75;;;3.10;99.90;;;;;;5020649;28;20037;-47
2022/05/05 03:46:19;;;;;;;20.42;12.80;;;3.20;99.90;;;;;;5020125;28;20040;-46
2022/05/05 03:48:45;;;;;;;20.63;12.25;;;3.20;99.90;;;;;;5017971;28;20041;-49
2022/05/05 03:51:11;;;;;;;22.20;12.95;;;3.20;99.90;;;;;;5019688;28;20048;-49
2022/05/05 03:53:37;;;;;;;24.45;13.73;;;3.30;99.90;;;;;;5019295;28;20045;-45
2022/05/05 03:56:04;;;;;;;24.35;14.25;;;3.40;99.90;;;;;;5017979;28;20067;-46
2022/05/05 03:58:30;;;;;;;18.23;11.43;;;3.20;99.90;;;;;;5021215;28;20152;-45
2022/05/05 04:00:56;;;;;;;17.55;11.15;;;3.40;99.90;;;;;;5019392;28;20117;-45
2022/05/05 04:03:34;;;;;;;14.05;9.93;;;3.30;99.90;;;;;;5017156;28;20045;-50
2022/05/05 04:06:04;;;;;;;21.23;12.05;;;3.60;99.90;;;;;;5017947;28;20060;-46
2022/05/05 04:08:31;;;;;;;17.48;11.55;;;3.40;99.90;;;;;;5017895;28;20116;-46
2022/05/05 04:10:57;;;;;;;17.95;11.13;;;3.70;99.90;;;;;;5018402;28;20124;-49
2022/05/05 04:13:25;;;;;;;21.98;11.80;;;3.70;99.90;;;;;;5020517;28;20163;-45
2022/05/05 04:15:51;;;;;;;17.02;11.15;;;3.80;99.90;;;;;;5018179;28;20397;-46
2022/05/05 04:18:17;;;;;;;23.25;12.50;;;3.70;99.90;;;;;;5018742;28;20034;-46
2022/05/05 04:20:43;;;;;;;23.08;13.13;;;3.90;99.90;;;;;;5019693;28;20040;-46
2022/05/05 04:23:09;;;;;;;25.40;14.18;;;4.00;99.90;;;;;;5018952;28;20049;-47
2022/05/05 04:25:43;;;;;;;24.02;12.98;;;4.20;99.90;;;;;;5018871;28;20090;-47
2022/05/05 04:28:10;;;;;;;27.45;14.80;;;4.10;99.90;;;;;;5018698;28;20041;-48
2022/05/05 04:30:37;;;;;;;21.92;14.55;;;4.40;99.90;;;;;;5019176;28;20061;-46
2022/05/05 04:33:03;;;;;;;23.33;14.82;;;4.60;99.90;;;;;;5020230;28;20044;-49
2022/05/05 04:35:29;;;;;;;21.55;14.65;;;4.50;99.90;;;;;;5017440;28;20033;-48
2022/05/05 04:37:55;;;;;;;27.48;15.30;;;4.80;99.90;;;;;;5017546;28;20606;-46
2022/05/05 04:40:20;;;;;;;21.23;13.85;;;4.90;99.90;;;;;;5015651;28;20068;-48
2022/05/05 04:42:46;;;;;;;19.40;12.35;;;5.00;99.90;;;;;;5017468;28;20041;-49
2022/05/05 04:45:12;;;;;;;20.83;12.55;;;5.10;99.90;;;;;;5017487;28;20048;-46
2022/05/05 04:47:38;;;;;;;23.13;12.88;;;5.20;99.90;;;;;;5034494;28;20041;-48
2022/05/05 04:50:05;;;;;;;22.83;14.23;;;5.10;99.90;;;;;;5019384;28;20044;-46
2022/05/05 04:52:31;;;;;;;24.50;14.18;;;5.20;99.90;;;;;;5019452;28;20044;-48
2022/05/05 04:54:57;;;;;;;25.67;14.18;;;6.10;99.90;;;;;;5018300;28;20033;-46
2022/05/05 04:57:23;;;;;;;21.25;14.75;;;5.40;99.90;;;;;;5018377;28;20032;-49
2022/05/05 04:59:49;;;;;;;27.48;15.35;;;5.50;99.90;;;;;;5016866;28;20882;-46
2022/05/05 05:02:15;;;;;;;23.83;14.65;;;5.60;99.90;;;;;;5019206;28;20045;-47
2022/05/05 05:04:41;;;;;;;21.48;14.63;;;5.60;99.90;;;;;;5018190;28;20047;-48
2022/05/05 05:07:07;;;;;;;22.38;13.50;;;5.80;99.90;;;;;;5017853;28;20419;-46
2022/05/05 05:09:34;;;;;;;26.27;14.60;;;5.80;99.90;;;;;;5018041;28;20058;-52
2022/05/05 05:12:00;;;;;;;21.27;14.18;;;5.90;99.90;;;;;;5016197;28;20042;-48
2022/05/05 05:14:26;;;;;;;20.02;14.13;;;6.10;99.90;;;;;;5017875;28;20038;-47
2022/05/05 05:16:52;;;;;;;20.25;14.75;;;6.60;99.90;;;;;;5018220;28;20076;-49
2022/05/05 05:19:19;;;;;;;24.10;14.98;;;6.30;99.90;;;;;;5018556;28;20073;-46
2022/05/05 05:21:45;;;;;;;21.08;14.65;;;6.30;99.90;;;;;;5018109;28;20544;-47
2022/05/05 05:24:11;;;;;;;18.63;13.63;;;6.60;99.90;;;;;;5017499;28;20073;-46
2022/05/05 05:26:37;;;;;;;21.02;14.27;;;7.20;99.90;;;;;;5017877;28;20064;-50
2022/05/05 05:29:02;;;;;;;26.50;14.43;;;6.90;99.90;;;;;;5020807;28;20107;-49
2022/05/05 05:31:28;;;;;;;21.73;13.60;;;7.20;99.90;;;;;;5022119;28;20042;-47
2022/05/05 05:33:54;;;;;;;22.05;14.10;;;7.80;99.90;;;;;;5022679;28;20038;-46
2022/05/05 05:36:20;;;;;;;21.10;13.85;;;7.30;99.90;;;;;;5021582;28;20052;-48
2022/05/05 05:38:46;;;;;;;20.17;13.10;;;7.60;99.90;;;;;;5021702;28;20033;-47
2022/05/05 05:41:12;;;;;;;22.13;14.05;;;7.80;99.90;;;;;;5021418;28;20072;-50
2022/05/05 05:43:39;;;;;;;19.15;12.98;;;8.10;99.90;;;;;;5022696;28;20056;-47
2022/05/05 05:46:04;;;;;;;18.20;11.68;;;9.40;99.90;;;;;;5021340;28;20087;-46
2022/05/05 05:48:30;;;;;;;20.50;12.63;;;9.00;99.90;;;;;;5022244;28;20045;-47
2022/05/05 05:50:56;;;;;;;20.08;12.45;;;9.50;99.90;;;;;;5021597;28;20043;-46
2022/05/05 05:53:22;;;;;;;16.35;11.80;;;9.90;99.90;;;;;;5021453;28;20030;-47
2022/05/05 05:55:47;;;;;;;16.77;11.18;;;10.30;99.90;;;;;;5022987;28;20040;-47
2022/05/05 05:58:13;;;;;;;18.33;12.52;;;10.60;99.90;;;;;;5021293;28;20456;-47
2022/05/05 06:00:39;;;;;;;15.98;10.30;;;10.70;99.90;;;;;;5021179;28;20392;-47
2022/05/05 06:05:50;;;;;;;19.90;12.32;;;10.40;99.90;;;;;;5021316;28;20503;-50
2022/05/05 06:08:16;;;;;;;16.48;11.32;;;10.50;99.90;;;;;;5020628;28;20046;-48
2022/05/05 06:10:42;;;;;;;18.25;11.63;;;10.70;99.90;;;;;;5020183;28;20038;-46
2022/05/05 06:13:08;;;;;;;18.08;10.70;;;10.60;99.90;;;;;;5020137;28;20087;-47
2022/05/05 06:15:34;;;;;;;19.00;10.32;;;11.00;99.90;;;;;;5020595;28;20028;-46
2022/05/05 06:17:59;;;;;;;15.63;9.75;;;11.10;99.90;;;;;;5018012;28;20037;-47
2022/05/05 06:20:25;;;;;;;15.27;9.82;;;11.10;99.90;;;;;;5018271;28;20037;-46
2022/05/05 06:22:51;;;;;;;17.42;9.18;;;11.50;99.90;;;;;;5020291;28;20038;-48
2022/05/05 06:25:20;;;;;;;18.15;8.95;;;11.40;99.90;;;;;;5020470;28;20452;-46
2022/05/05 06:27:46;;;;;;;13.45;9.25;;;11.60;99.90;;;;;;5020856;28;20044;-49
2022/05/05 06:30:13;;;;;;;16.58;8.77;;;11.60;99.90;;;;;;5019295;28;20088;-51
2022/05/05 06:32:39;;;;;;;16.90;8.35;;;11.80;99.90;;;;;;5021981;28;20022;-48
2022/05/05 06:35:06;;;;;;;10.73;7.88;;;11.90;99.90;;;;;;5019243;28;20045;-47
2022/05/05 06:37:32;;;;;;;13.38;8.90;;;12.20;99.90;;;;;;5021854;28;20033;-47
2022/05/05 06:39:57;;;;;;;15.15;8.68;;;12.30;99.90;;;;;;5016725;28;20479;-48
2022/05/05 06:42:23;;;;;;;12.50;8.23;;;12.80;99.90;;;;;;5021658;28;20025;-46
2022/05/05 06:44:49;;;;;;;14.45;8.75;;;12.60;99.90;;;;;;5019361;28;20496;-51
2022/05/05 06:47:14;;;;;;;18.58;8.68;;;12.80;99.90;;;;;;5021572;28;20109;-49
2022/05/05 06:49:40;;;;;;;12.18;8.18;;;13.40;99.90;;;;;;5021804;28;20400;-50
2022/05/05 06:52:06;;;;;;;13.35;7.85;;;13.10;99.90;;;;;;4993853;28;20053;-48
2022/05/05 06:54:32;;;;;;;16.17;7.50;;;13.30;99.90;;;;;;5021501;28;20041;-51
2022/05/05 06:56:58;;;;;;;14.07;8.45;;;13.50;99.90;;;;;;5020429;28;20061;-46
2022/05/05 06:59:24;;;;;;;12.32;7.47;;;13.60;99.90;;;;;;5019418;28;20056;-47
2022/05/05 07:01:53;;;;;;;13.25;7.15;;;13.70;99.90;;;;;;5007496;28;20045;-46
2022/05/05 07:07:06;;;;;;;14.73;7.65;;;14.20;95.80;;;;;;5019042;28;20314;-47
2022/05/05 07:12:18;;;;;;;11.90;6.05;;;14.10;94.20;;;;;;5019952;28;20045;-49
2022/05/05 07:14:44;;;;;;;10.90;6.53;;;14.20;93.50;;;;;;5020944;28;20025;-49
2022/05/05 07:17:11;;;;;;;14.05;6.43;;;14.20;92.80;;;;;;5019730;28;20119;-51
2022/05/05 07:19:37;;;;;;;12.60;6.57;;;14.50;92.40;;;;;;5020295;28;20565;-48
2022/05/05 07:22:03;;;;;;;12.18;6.00;;;14.40;92.60;;;;;;5020527;28;20074;-47
2022/05/05 07:24:32;;;;;;;16.35;6.68;;;14.60;91.80;;;;;;5019326;28;20041;-49
2022/05/05 07:26:58;;;;;;;14.73;6.38;;;14.60;91.30;;;;;;5020600;28;20124;-48
2022/05/05 07:29:24;;;;;;;14.73;6.25;;;14.70;90.90;;;;;;5020031;28;20515;-47
2022/05/05 07:31:50;;;;;;;11.02;5.38;;;14.80;90.70;;;;;;5020515;28;20025;-48
2022/05/05 07:34:16;;;;;;;13.13;5.50;;;15.00;90.30;;;;;;5020435;28;20030;-48
2022/05/05 07:36:44;;;;;;;19.10;5.63;;;14.90;90.10;;;;;;5021035;28;20535;-50
2022/05/05 07:39:10;;;;;;;9.77;4.80;;;15.00;89.20;;;;;;5019622;28;20472;-48
2022/05/05 07:41:36;;;;;;;9.95;5.68;;;15.00;89.30;;;;;;5020282;28;20095;-50
2022/05/05 07:44:01;;;;;;;10.18;5.65;;;15.00;87.70;;;;;;5019552;28;20511;-51
2022/05/05 07:46:30;;;;;;;13.40;4.55;;;15.20;86.80;;;;;;5015589;28;20044;-50
2022/05/05 07:48:56;;;;;;;9.95;3.72;;;15.30;85.70;;;;;;5019701;28;20052;-50
2022/05/05 07:51:22;;;;;;;8.43;4.22;;;15.40;85.10;;;;;;5019743;28;20034;-48
2022/05/05 07:54:34;;;;;;;15.65;4.80;;;15.50;84.50;;;;;;5020310;28;20076;-47
2022/05/05 07:56:33;;;;;;;12.80;5.32;;;15.60;82.90;;;;;;5018535;28;20037;-47
2022/05/05 07:58:59;;;;;;;7.72;3.65;;;15.60;82.90;;;;;;5019796;28;20095;-47
2022/05/05 08:01:25;;;;;;;9.98;3.88;;;15.70;82.50;;;;;;5016947;28;20531;-52
2022/05/05 08:03:50;;;;;;;7.50;2.97;;;15.70;80.20;;;;;;5016786;28;20129;-50
2022/05/05 08:06:16;;;;;;;9.93;3.58;;;15.40;78.80;;;;;;5018326;28;20045;-48
2022/05/05 08:08:42;;;;;;;8.38;3.55;;;15.80;78.70;;;;;;5018723;28;20091;-51
2022/05/05 08:11:07;;;;;;;9.18;3.72;;;15.70;77.90;;;;;;5031902;28;20048;-48
2022/05/05 08:13:33;;;;;;;7.93;3.67;;;15.90;77.90;;;;;;5014297;28;20455;-50
2022/05/05 08:16:18;;;;;;;10.18;4.04;;;15.90;77.50;;;;;;4969020;28;10001267;-50
2022/05/05 08:18:43;;;;;;;8.60;4.00;;;16.10;75.40;;;;;;5017435;28;20227;-48
2022/05/05 08:21:10;;;;;;;9.80;3.78;;;15.90;76.20;;;;;;5019251;28;20038;-48
2022/05/05 08:23:36;;;;;;;10.82;3.58;;;16.00;76.60;;;;;;5016277;28;20040;-50
2022/05/05 08:28:47;;;;;;;8.60;3.75;;;16.20;76.50;;;;;;5016948;28;20444;-47
2022/05/05 08:31:13;;;;;;;10.18;3.50;;;16.30;76.10;;;;;;5018735;28;20030;-47
2022/05/05 08:33:39;;;;;;;9.57;2.75;;;16.40;76.00;;;;;;5018012;28;20034;-47
2022/05/05 08:36:06;;;;;;;8.35;4.05;;;16.50;75.50;;;;;;5017748;28;20138;-48
2022/05/05 08:38:33;;;;;;;8.70;3.35;;;16.60;74.70;;;;;;5018180;28;20046;-50
2022/05/05 08:40:59;;;;;;;7.60;3.65;;;16.80;73.40;;;;;;5017813;28;20235;-47
2022/05/05 08:43:25;;;;;;;8.73;3.97;;;17.00;73.10;;;;;;5019023;28;20770;-48
2022/05/05 08:45:53;;;;;;;7.43;2.65;;;17.00;72.20;;;;;;5018610;28;20059;-48
2022/05/05 08:48:20;;;;;;;8.32;2.83;;;17.30;71.20;;;;;;5016920;28;20492;-50
2022/05/05 08:50:51;;;;;;;5.40;1.80;;;17.60;70.80;;;;;;5016899;28;20045;-52
2022/05/05 08:53:21;;;;;;;5.50;2.55;;;17.80;69.90;;;;;;5016444;28;20038;-51
2022/05/05 08:55:47;;;;;;;5.78;2.33;;;18.20;69.70;;;;;;5018905;28;20053;-50
2022/05/05 08:58:12;;;;;;;9.88;3.00;;;18.50;69.30;;;;;;5018181;28;20064;-51
2022/05/05 09:00:38;;;;;;;6.60;2.47;;;18.80;68.00;;;;;;5018714;28;20112;-49
2022/05/05 09:03:04;;;;;;;6.35;2.08;;;19.10;66.50;;;;;;5021783;28;20052;-47
2022/05/05 09:05:42;;;;;;;7.35;2.85;;;19.30;65.60;;;;;;5021107;28;20392;-52
2022/05/05 09:08:25;;;;;;;4.20;2.28;;;19.80;65.60;;;;;;5019863;28;20046;-52
2022/05/05 09:10:51;;;;;;;7.28;3.05;;;20.10;65.10;;;;;;5020126;28;20077;-52
2022/05/05 09:13:22;;;;;;;5.38;2.40;;;20.40;63.50;;;;;;5020136;28;20109;-52
2022/05/05 09:15:47;;;;;;;6.13;3.00;;;21.40;62.50;;;;;;5019562;28;20028;-50
2022/05/05 09:18:18;;;;;;;7.20;2.80;;;20.90;62.10;;;;;;5020910;28;20377;-49
2022/05/05 09:20:45;;;;;;;6.47;2.88;;;21.20;61.80;;;;;;5020165;28;20033;-50
2022/05/05 09:26:25;;;;;;;5.47;2.50;;;21.90;59.20;;;;;;5017538;28;20447;-50
2022/05/05 09:28:51;;;;;;;6.25;2.50;;;22.10;60.00;;;;;;5020836;28;20040;-49
2022/05/05 09:31:17;;;;;;;6.78;2.53;;;22.20;58.90;;;;;;5019973;28;20083;-50
2022/05/05 09:33:44;;;;;;;7.32;2.50;;;22.40;57.60;;;;;;5019719;28;20132;-48
2022/05/05 09:36:17;;;;;;;7.47;2.85;;;22.80;57.20;;;;;;5020143;28;20049;-50
2022/05/05 09:38:56;;;;;;;7.25;2.75;;;23.20;57.60;;;;;;5019143;28;20443;-51
2022/05/05 09:41:24;;;;;;;5.90;2.97;;;23.70;56.60;;;;;;5020662;28;20433;-50
2022/05/05 09:43:55;;;;;;;6.13;2.80;;;24.20;56.00;;;;;;5019261;28;20060;-51
2022/05/05 09:46:25;;;;;;;7.35;2.95;;;24.70;55.00;;;;;;5016440;28;20124;-52
2022/05/05 09:48:51;;;;;;;4.65;3.13;;;25.10;53.50;;;;;;5016058;28;20045;-54
2022/05/05 09:51:18;;;;;;;6.85;2.78;;;25.50;53.70;;;;;;5021212;28;20810;-52
2022/05/05 09:59:26;;;;;;;6.53;3.17;;;26.30;51.20;;;;;;5021140;28;20133;-52
2022/05/05 10:01:55;;;;;;;7.45;3.63;;;26.70;52.00;;;;;;5019383;28;20064;-53
2022/05/05 10:04:25;;;;;;;6.03;3.80;;;26.80;50.60;;;;;;5017190;28;20033;-53
2022/05/05 10:06:54;;;;;;;6.97;3.00;;;26.70;50.10;;;;;;5020143;28;20033;-54
2022/05/05 10:09:20;;;;;;;7.57;3.42;;;26.80;50.20;;;;;;5019720;28;20041;-54
2022/05/05 10:11:47;;;;;;;6.63;3.13;;;27.00;49.80;;;;;;5019868;28;20041;-56
2022/05/05 10:14:16;;;;;;;7.30;3.92;;;27.00;49.00;;;;;;4995609;28;20053;-54
2022/05/05 10:16:42;;;;;;;5.47;3.15;;;27.20;48.50;;;;;;5014082;28;20370;-53
2022/05/05 10:19:09;;;;;;;7.93;3.25;;;27.50;48.10;;;;;;5021605;28;20153;-53
2022/05/05 10:21:50;;;;;;;6.57;3.92;;;27.90;47.80;;;;;;5020088;28;20033;-53
2022/05/05 10:24:27;;;;;;;9.38;3.83;;;28.10;46.20;;;;;;5020803;28;20504;-53
2022/05/05 10:26:55;;;;;;;5.57;3.80;;;27.90;45.00;;;;;;5019764;28;20400;-53
2022/05/05 10:29:44;;;;;;;7.53;3.67;;;27.50;44.60;;;;;;5019169;28;20049;-54
2022/05/05 10:32:21;;;;;;;8.43;3.85;;;27.30;45.20;;;;;;5020559;28;20524;-54
2022/05/05 10:34:52;;;;;;;6.75;3.53;;;27.10;44.00;;;;;;5017894;28;20113;-54
2022/05/05 10:37:22;;;;;;;6.68;3.75;;;27.30;45.50;;;;;;5019306;28;20064;-54
2022/05/05 10:40:08;;;;;;;7.13;3.97;;;27.50;46.90;;;;;;5018797;28;20041;-49
2022/05/05 10:42:40;;;;;;;10.73;4.03;;;27.40;46.50;;;;;;5019334;28;20529;-50
2022/05/05 10:45:29;;;;;;;6.13;3.97;;;27.20;45.90;;;;;;5021503;28;20037;-46
2022/05/05 10:48:06;;;;;;;6.35;2.80;;;27.20;46.10;;;;;;5019695;28;20044;-46
2022/05/05 10:50:39;;;;;;;6.68;3.90;;;27.10;46.50;;;;;;5018544;28;20045;-47
2022/05/05 10:53:07;;;;;;;5.30;3.40;;;26.90;46.10;;;;;;5018964;28;20571;-46
2022/05/05 10:55:46;;;;;;;8.85;4.20;;;26.80;46.90;;;;;;5019315;28;20037;-52
2022/05/05 10:58:12;;;;;;;6.10;3.50;;;26.70;46.90;;;;;;5019619;28;20037;-47
2022/05/05 11:00:43;;;;;;;6.05;3.35;;;26.40;46.80;;;;;;5019389;28;20049;-47
2022/05/05 11:03:09;;;;;;;12.23;4.38;;;26.20;47.20;;;;;;5018593;28;20400;-47
2022/05/05 11:05:38;;;;;;;7.05;3.35;;;25.90;46.60;;;;;;5021383;28;21156;-48
2022/05/05 11:08:10;;;;;;;6.63;3.47;;;25.70;47.20;;;;;;5020014;28;20042;-49
2022/05/05 11:10:43;;;;;;;8.55;4.03;;;25.70;47.00;;;;;;5018015;28;20045;-48
2022/05/05 11:13:39;;;;;;;5.90;3.63;;;25.60;46.20;;;;;;5020670;28;20123;-49
2022/05/05 11:22:26;;;;;;;6.25;4.35;;;25.10;46.70;;;;;;5018354;28;20057;-47
2022/05/05 11:24:52;;;;;;;13.00;4.07;;;24.90;46.90;;;;;;5019106;28;20435;-46
2022/05/05 11:27:21;;;;;;;7.40;4.30;;;24.90;46.60;;;;;;5021156;28;20124;-52
2022/05/05 11:29:52;;;;;;;7.57;3.63;;;24.80;46.20;;;;;;5019181;28;20041;-47
2022/05/05 11:32:19;;;;;;;13.70;4.60;;;24.70;46.50;;;;;;5019680;28;20599;-47
2022/05/05 11:34:46;;;;;;;8.55;3.40;;;24.60;46.80;;;;;;5019359;28;20068;-50
2022/05/05 11:37:12;;;;;;;6.68;3.28;;;24.40;47.50;;;;;;5019536;28;20049;-47
2022/05/05 11:39:39;;;;;;;7.53;3.35;;;24.30;48.60;;;;;;5019711;28;20424;-48
2022/05/05 11:42:09;;;;;;;9.70;3.97;;;24.30;48.80;;;;;;5018697;28;20148;-46
2022/05/05 11:44:43;;;;;;;5.57;3.75;;;24.40;50.00;;;;;;5018722;28;20049;-48
2022/05/05 11:47:11;;;;;;;9.93;3.58;;;24.40;49.90;;;;;;5020301;28;20050;-48
2022/05/05 11:49:37;;;;;;;7.05;3.55;;;24.40;49.90;;;;;;5018808;28;20753;-47
2022/05/05 11:52:04;;;;;;;5.32;3.40;;;24.30;49.30;;;;;;5019517;28;20218;-46
2022/05/05 11:54:32;;;;;;;8.98;3.97;;;24.20;49.40;;;;;;5018301;28;20570;-47
2022/05/05 11:56:59;;;;;;;7.13;3.35;;;24.20;49.50;;;;;;5018803;28;20480;-47
2022/05/05 12:02:22;;;;;;;7.43;3.40;;;24.00;50.60;;;;;;5019327;28;20079;-46
2022/05/05 12:04:56;;;;;;;6.13;3.55;;;23.80;51.40;;;;;;5019232;28;20046;-47
2022/05/05 12:07:24;;;;;;;9.00;3.67;;;23.60;50.90;;;;;;5019460;28;20049;-46
2022/05/05 12:09:51;;;;;;;6.25;3.60;;;23.50;51.10;;;;;;5016348;28;20520;-47
2022/05/05 12:12:22;;;;;;;6.50;3.60;;;23.30;51.30;;;;;;5018950;28;20052;-46
2022/05/05 12:14:53;;;;;;;3.57;2.50;;;23.00;50.20;;;;;;5016356;28;20880;-47
2022/05/05 12:17:21;;;;;;;4.90;2.42;;;22.80;51.40;;;;;;5016352;28;20038;-47
2022/05/05 12:19:55;;;;;;;4.60;2.13;;;22.50;50.80;;;;;;5018843;28;20077;-48
2022/05/05 12:22:34;;;;;;;5.80;3.10;;;22.20;50.80;;;;;;5015138;28;20045;-47
2022/05/05 12:25:12;;;;;;;6.13;2.80;;;21.90;49.90;;;;;;5015894;28;20073;-45
2022/05/05 12:27:38;;;;;;;3.65;2.08;;;21.50;49.90;;;;;;5016309;28;20095;-52
2022/05/05 12:30:05;;;;;;;3.40;1.95;;;21.20;50.50;;;;;;5018358;28;20095;-47
2022/05/05 12:32:31;;;;;;;5.97;2.58;;;21.00;51.70;;;;;;5017045;28;20045;-51
2022/05/05 12:35:17;;;;;;;4.85;2.03;;;20.80;52.10;;;;;;5017895;28;20449;-48
2022/05/05 12:37:43;;;;;;;4.07;1.27;;;20.60;50.70;;;;;;5018722;28;20041;-47
2022/05/05 12:40:10;;;;;;;5.47;1.63;;;20.60;52.00;;;;;;5015023;28;20425;-46
2022/05/05 12:42:48;;;;;;;9.55;2.30;;;20.60;52.90;;;;;;5017478;28;20112;-52
2022/05/05 12:45:15;;;;;;;4.25;1.80;;;20.80;54.70;;;;;;5016656;28;20984;-47
2022/05/05 12:47:44;;;;;;;5.50;1.45;;;21.00;54.70;;;;;;5019171;28;21585;-47
2022/05/05 12:50:46;;;;;;;5.95;2.15;;;21.10;54.50;;;;;;5018148;28;20083;-52
2022/05/05 13:01:46;;;;;;;4.45;2.30;;;21.70;52.50;;;;;;5017214;28;20128;-46
2022/05/05 13:04:15;;;;;;;4.38;1.52;;;22.60;52.60;;;;;;5019462;28;20493;-48
2022/05/05 13:06:42;;;;;;;5.45;2.25;;;22.00;52.80;;;;;;5018211;28;20033;-55
2022/05/05 13:09:09;;;;;;;7.93;2.50;;;22.20;53.20;;;;;;5018917;28;20088;-47
2022/05/05 13:11:40;;;;;;;4.00;1.63;;;22.40;53.10;;;;;;5018025;28;20033;-46
2022/05/05 13:14:06;;;;;;;9.70;2.10;;;22.50;52.40;;;;;;5019448;28;20597;-47
2022/05/05 13:16:32;;;;;;;4.10;2.35;;;22.70;52.30;;;;;;5018224;28;20034;-49
2022/05/05 13:18:59;;;;;;;3.20;1.83;;;22.80;51.90;;;;;;5017598;28;20478;-53
2022/05/05 13:21:27;;;;;;;4.25;1.83;;;22.90;51.20;;;;;;5017674;28;20113;-50
2022/05/05 13:23:52;;;;;;;7.28;1.52;;;23.00;50.70;;;;;;5015298;28;20042;-46
2022/05/05 13:26:18;;;;;;;5.22;1.95;;;23.00;50.70;;;;;;5017361;28;20048;-50
2022/05/05 13:28:44;;;;;;;3.17;2.00;;;23.00;51.10;;;;;;5017702;28;20037;-48
2022/05/05 13:31:09;;;;;;;4.70;2.28;;;22.90;50.40;;;;;;5018326;28;20036;-45
2022/05/05 13:33:35;;;;;;;6.78;2.20;;;22.80;50.50;;;;;;5017312;28;20132;-54
2022/05/05 13:36:01;;;;;;;5.45;2.03;;;22.80;51.30;;;;;;5017579;28;20065;-46